Upstream stations:
Downstream station:
SHEF ID: SLSA4 Illinois River at Hwy. 16 near S
STATION TYPE:
PRECIP STAGE RIV-FLOW BAT-LOAD
in ft cfs volt
Ccp-Rev Ccp-Rev Ccp-Rev Ccp-Rev
(US/Central)
10/22 00:00 0.00 6.32 417 12.77
10/22 01:00 0.00 6.32 417 12.77
10/22 02:00 0.00 6.32 417 12.77
10/22 03:00 0.00 6.33 422 12.71
10/22 04:00 0.00 6.32 417 12.71
10/22 05:00 0.00 6.32 417 12.65
10/22 06:00 0.00 6.32 417 12.65
10/22 07:00 0.00 6.32 417 12.65
10/22 08:00 0.00 6.33 422 12.65
10/22 09:00 0.00 6.32 417 12.65
10/22 10:00 0.00 6.32 417 13.00
10/22 11:00 0.00 6.32 417 13.94
10/22 12:00 0.00 6.32 417 13.59
10/22 13:00 0.00 6.32 417 13.59
10/22 14:00 0.00 6.30 407 13.48
10/22 15:00 0.00 6.28 398 13.48
10/22 16:00 0.00 6.30 407 13.42
10/22 17:00 0.00 6.28 398 13.24
10/22 18:00 0.00 6.30 407 13.07
10/22 19:00 0.00 6.29 403 13.00
10/22 20:00 0.00 6.29 403 12.89
10/22 21:00 0.00 6.29 403 12.89
10/22 22:00 0.00 6.28 342 12.83
10/22 23:00 0.00 6.29 347 12.83